sensor_id;sensor_type;location;lat;lon;timestamp;P1;durP1;ratioP1;P2;durP2;ratioP2
789;SDS011;378;48.844;9.156;2023-04-03T00:01:42;3.25;;;1.95;;
789;SDS011;378;48.844;9.156;2023-04-03T00:04:08;5.10;;;2.45;;
789;SDS011;378;48.844;9.156;2023-04-03T00:06:37;6.28;;;2.58;;
789;SDS011;378;48.844;9.156;2023-04-03T00:09:03;7.15;;;2.40;;
789;SDS011;378;48.844;9.156;2023-04-03T00:11:30;5.28;;;2.60;;
789;SDS011;378;48.844;9.156;2023-04-03T00:13:57;5.20;;;2.30;;
789;SDS011;378;48.844;9.156;2023-04-03T00:16:24;3.25;;;2.20;;
789;SDS011;378;48.844;9.156;2023-04-03T00:18:51;4.53;;;2.47;;
789;SDS011;378;48.844;9.156;2023-04-03T00:21:17;2.83;;;2.20;;
789;SDS011;378;48.844;9.156;2023-04-03T00:23:46;3.33;;;2.25;;
789;SDS011;378;48.844;9.156;2023-04-03T00:26:13;3.45;;;2.33;;
789;SDS011;378;48.844;9.156;2023-04-03T00:28:39;7.60;;;2.40;;
789;SDS011;378;48.844;9.156;2023-04-03T00:31:06;4.97;;;2.40;;
789;SDS011;378;48.844;9.156;2023-04-03T00:33:33;4.65;;;2.30;;
789;SDS011;378;48.844;9.156;2023-04-03T00:36:04;3.65;;;2.10;;
789;SDS011;378;48.844;9.156;2023-04-03T00:38:32;5.03;;;2.20;;
789;SDS011;378;48.844;9.156;2023-04-03T00:41:01;5.47;;;2.40;;
789;SDS011;378;48.844;9.156;2023-04-03T00:43:28;4.88;;;2.30;;
789;SDS011;378;48.844;9.156;2023-04-03T00:45:55;6.65;;;2.13;;
789;SDS011;378;48.844;9.156;2023-04-03T00:48:24;3.47;;;1.88;;
789;SDS011;378;48.844;9.156;2023-04-03T00:50:54;4.05;;;2.20;;
789;SDS011;378;48.844;9.156;2023-04-03T00:53:22;3.58;;;2.70;;
789;SDS011;378;48.844;9.156;2023-04-03T00:55:51;5.43;;;2.40;;
789;SDS011;378;48.844;9.156;2023-04-03T00:58:24;3.72;;;2.50;;
789;SDS011;378;48.844;9.156;2023-04-03T01:00:58;4.57;;;2.35;;
789;SDS011;378;48.844;9.156;2023-04-03T01:03:29;9.52;;;2.22;;
789;SDS011;378;48.844;9.156;2023-04-03T01:05:56;4.60;;;2.30;;
789;SDS011;378;48.844;9.156;2023-04-03T01:08:24;3.17;;;2.10;;
789;SDS011;378;48.844;9.156;2023-04-03T01:10:51;3.17;;;2.35;;
789;SDS011;378;48.844;9.156;2023-04-03T01:13:20;3.58;;;2.17;;
789;SDS011;378;48.844;9.156;2023-04-03T01:15:51;5.20;;;2.30;;
789;SDS011;378;48.844;9.156;2023-04-03T01:18:18;4.22;;;2.20;;
789;SDS011;378;48.844;9.156;2023-04-03T01:21:02;7.70;;;2.20;;
789;SDS011;378;48.844;9.156;2023-04-03T01:23:51;4.60;;;2.28;;
789;SDS011;378;48.844;9.156;2023-04-03T01:26:24;4.68;;;2.42;;
789;SDS011;378;48.844;9.156;2023-04-03T01:28:54;3.83;;;2.50;;
789;SDS011;378;48.844;9.156;2023-04-03T01:31:22;4.57;;;2.22;;
789;SDS011;378;48.844;9.156;2023-04-03T01:33:53;3.08;;;2.28;;
789;SDS011;378;48.844;9.156;2023-04-03T01:36:21;5.60;;;2.35;;
789;SDS011;378;48.844;9.156;2023-04-03T01:38:50;4.05;;;2.20;;
789;SDS011;378;48.844;9.156;2023-04-03T01:41:18;4.60;;;2.40;;
789;SDS011;378;48.844;9.156;2023-04-03T01:43:45;3.53;;;2.15;;
789;SDS011;378;48.844;9.156;2023-04-03T01:46:13;3.97;;;2.60;;
789;SDS011;378;48.844;9.156;2023-04-03T01:48:40;5.95;;;2.35;;
789;SDS011;378;48.844;9.156;2023-04-03T01:51:09;4.78;;;2.25;;
789;SDS011;378;48.844;9.156;2023-04-03T01:53:36;4.72;;;2.08;;
789;SDS011;378;48.844;9.156;2023-04-03T01:56:03;3.22;;;2.47;;
789;SDS011;378;48.844;9.156;2023-04-03T01:58:30;3.58;;;2.33;;
789;SDS011;378;48.844;9.156;2023-04-03T02:00:57;5.17;;;2.60;;
789;SDS011;378;48.844;9.156;2023-04-03T02:03:24;3.85;;;2.40;;
789;SDS011;378;48.844;9.156;2023-04-03T02:05:51;4.43;;;2.45;;
789;SDS011;378;48.844;9.156;2023-04-03T02:08:19;4.47;;;2.30;;
789;SDS011;378;48.844;9.156;2023-04-03T02:10:46;5.57;;;2.45;;
789;SDS011;378;48.844;9.156;2023-04-03T02:13:14;4.38;;;2.40;;
789;SDS011;378;48.844;9.156;2023-04-03T02:15:41;3.67;;;2.40;;
789;SDS011;378;48.844;9.156;2023-04-03T02:18:08;4.97;;;2.30;;
789;SDS011;378;48.844;9.156;2023-04-03T02:20:35;4.85;;;2.17;;
789;SDS011;378;48.844;9.156;2023-04-03T02:23:02;5.78;;;2.42;;
789;SDS011;378;48.844;9.156;2023-04-03T02:25:31;9.32;;;2.35;;
789;SDS011;378;48.844;9.156;2023-04-03T02:27:58;4.15;;;2.63;;
789;SDS011;378;48.844;9.156;2023-04-03T02:30:25;5.93;;;2.50;;
789;SDS011;378;48.844;9.156;2023-04-03T02:32:52;6.03;;;2.42;;
789;SDS011;378;48.844;9.156;2023-04-03T02:35:19;3.85;;;2.20;;
789;SDS011;378;48.844;9.156;2023-04-03T02:37:46;2.55;;;2.05;;
789;SDS011;378;48.844;9.156;2023-04-03T02:40:13;6.25;;;2.60;;
789;SDS011;378;48.844;9.156;2023-04-03T02:42:41;3.90;;;2.17;;
789;SDS011;378;48.844;9.156;2023-04-03T02:45:08;5.25;;;2.00;;
789;SDS011;378;48.844;9.156;2023-04-03T02:47:35;5.03;;;2.47;;
789;SDS011;378;48.844;9.156;2023-04-03T02:50:02;4.78;;;1.90;;
789;SDS011;378;48.844;9.156;2023-04-03T02:52:30;2.67;;;1.88;;
789;SDS011;378;48.844;9.156;2023-04-03T02:54:56;5.05;;;2.00;;
789;SDS011;378;48.844;9.156;2023-04-03T02:57:23;3.30;;;1.95;;
789;SDS011;378;48.844;9.156;2023-04-03T02:59:51;4.07;;;2.42;;
789;SDS011;378;48.844;9.156;2023-04-03T03:02:18;2.65;;;1.83;;
789;SDS011;378;48.844;9.156;2023-04-03T03:04:46;3.17;;;2.22;;
789;SDS011;378;48.844;9.156;2023-04-03T03:07:12;3.30;;;2.08;;
789;SDS011;378;48.844;9.156;2023-04-03T03:09:39;5.57;;;2.22;;
789;SDS011;378;48.844;9.156;2023-04-03T03:12:06;3.95;;;1.70;;
789;SDS011;378;48.844;9.156;2023-04-03T03:14:33;4.30;;;1.95;;
789;SDS011;378;48.844;9.156;2023-04-03T03:17:01;3.63;;;1.90;;
789;SDS011;378;48.844;9.156;2023-04-03T03:19:28;4.30;;;1.92;;
789;SDS011;378;48.844;9.156;2023-04-03T03:21:55;2.75;;;1.90;;
789;SDS011;378;48.844;9.156;2023-04-03T03:24:22;3.38;;;1.90;;
789;SDS011;378;48.844;9.156;2023-04-03T03:26:48;4.15;;;1.92;;
789;SDS011;378;48.844;9.156;2023-04-03T03:29:15;3.42;;;2.35;;
789;SDS011;378;48.844;9.156;2023-04-03T03:31:42;3.42;;;2.05;;
789;SDS011;378;48.844;9.156;2023-04-03T03:34:10;6.38;;;2.42;;
789;SDS011;378;48.844;9.156;2023-04-03T03:36:38;4.40;;;2.40;;
789;SDS011;378;48.844;9.156;2023-04-03T03:39:05;3.10;;;1.98;;
789;SDS011;378;48.844;9.156;2023-04-03T03:41:32;5.05;;;2.50;;
789;SDS011;378;48.844;9.156;2023-04-03T03:43:59;5.32;;;2.50;;
789;SDS011;378;48.844;9.156;2023-04-03T03:46:26;5.03;;;2.13;;
789;SDS011;378;48.844;9.156;2023-04-03T03:48:53;6.35;;;2.25;;
789;SDS011;378;48.844;9.156;2023-04-03T03:51:21;3.75;;;2.10;;
789;SDS011;378;48.844;9.156;2023-04-03T03:53:47;4.15;;;1.90;;
789;SDS011;378;48.844;9.156;2023-04-03T03:56:14;6.80;;;1.85;;
789;SDS011;378;48.844;9.156;2023-04-03T03:58:41;3.50;;;1.90;;
789;SDS011;378;48.844;9.156;2023-04-03T04:01:08;3.70;;;2.25;;
789;SDS011;378;48.844;9.156;2023-04-03T04:03:35;4.88;;;2.25;;
789;SDS011;378;48.844;9.156;2023-04-03T04:06:02;4.15;;;1.90;;
789;SDS011;378;48.844;9.156;2023-04-03T04:08:30;3.13;;;2.05;;
789;SDS011;378;48.844;9.156;2023-04-03T04:10:57;3.85;;;2.08;;
789;SDS011;378;48.844;9.156;2023-04-03T04:13:24;2.40;;;1.83;;
789;SDS011;378;48.844;9.156;2023-04-03T04:15:50;6.07;;;2.00;;
789;SDS011;378;48.844;9.156;2023-04-03T04:18:17;3.17;;;2.10;;
789;SDS011;378;48.844;9.156;2023-04-03T04:20:45;3.20;;;2.30;;
789;SDS011;378;48.844;9.156;2023-04-03T04:23:12;2.53;;;2.03;;
789;SDS011;378;48.844;9.156;2023-04-03T04:25:40;3.73;;;2.27;;
789;SDS011;378;48.844;9.156;2023-04-03T04:28:07;2.90;;;2.13;;
789;SDS011;378;48.844;9.156;2023-04-03T04:30:34;4.10;;;2.40;;
789;SDS011;378;48.844;9.156;2023-04-03T04:33:00;4.63;;;2.20;;
789;SDS011;378;48.844;9.156;2023-04-03T04:35:27;3.63;;;2.27;;
789;SDS011;378;48.844;9.156;2023-04-03T04:37:54;5.43;;;1.90;;
789;SDS011;378;48.844;9.156;2023-04-03T04:40:21;3.83;;;2.05;;
789;SDS011;378;48.844;9.156;2023-04-03T04:42:49;3.90;;;1.90;;
789;SDS011;378;48.844;9.156;2023-04-03T04:45:16;3.78;;;2.10;;
789;SDS011;378;48.844;9.156;2023-04-03T04:47:44;4.13;;;1.88;;
789;SDS011;378;48.844;9.156;2023-04-03T04:50:10;4.13;;;2.00;;
789;SDS011;378;48.844;9.156;2023-04-03T04:52:37;3.83;;;2.10;;
789;SDS011;378;48.844;9.156;2023-04-03T04:55:04;3.00;;;2.10;;
789;SDS011;378;48.844;9.156;2023-04-03T04:57:32;3.55;;;2.03;;
789;SDS011;378;48.844;9.156;2023-04-03T05:00:01;2.83;;;2.00;;
789;SDS011;378;48.844;9.156;2023-04-03T05:02:29;3.58;;;2.00;;
789;SDS011;378;48.844;9.156;2023-04-03T05:04:55;3.88;;;2.35;;
789;SDS011;378;48.844;9.156;2023-04-03T05:07:22;5.15;;;2.45;;
789;SDS011;378;48.844;9.156;2023-04-03T05:09:49;2.55;;;2.20;;
789;SDS011;378;48.844;9.156;2023-04-03T05:12:16;2.80;;;2.00;;
789;SDS011;378;48.844;9.156;2023-04-03T05:14:43;2.75;;;2.10;;
789;SDS011;378;48.844;9.156;2023-04-03T05:17:11;3.17;;;2.20;;
789;SDS011;378;48.844;9.156;2023-04-03T05:19:38;2.85;;;2.00;;
789;SDS011;378;48.844;9.156;2023-04-03T05:22:05;4.43;;;2.10;;
789;SDS011;378;48.844;9.156;2023-04-03T05:24:32;3.47;;;1.95;;
789;SDS011;378;48.844;9.156;2023-04-03T05:26:59;2.72;;;2.30;;
789;SDS011;378;48.844;9.156;2023-04-03T05:29:25;2.63;;;1.88;;
789;SDS011;378;48.844;9.156;2023-04-03T05:31:52;3.80;;;2.30;;
789;SDS011;378;48.844;9.156;2023-04-03T05:34:20;3.53;;;2.08;;
789;SDS011;378;48.844;9.156;2023-04-03T05:36:47;5.63;;;2.05;;
789;SDS011;378;48.844;9.156;2023-04-03T05:39:14;6.50;;;2.35;;
789;SDS011;378;48.844;9.156;2023-04-03T05:41:41;2.47;;;1.77;;
789;SDS011;378;48.844;9.156;2023-04-03T05:44:08;5.20;;;2.35;;
789;SDS011;378;48.844;9.156;2023-04-03T05:46:34;3.90;;;2.10;;
789;SDS011;378;48.844;9.156;2023-04-03T05:49:02;4.38;;;2.45;;
789;SDS011;378;48.844;9.156;2023-04-03T05:51:30;3.05;;;1.98;;
789;SDS011;378;48.844;9.156;2023-04-03T05:54:00;4.43;;;2.00;;
789;SDS011;378;48.844;9.156;2023-04-03T05:56:32;9.23;;;2.00;;
789;SDS011;378;48.844;9.156;2023-04-03T05:58:59;4.38;;;2.33;;
789;SDS011;378;48.844;9.156;2023-04-03T06:01:25;6.22;;;2.10;;
789;SDS011;378;48.844;9.156;2023-04-03T06:03:53;4.20;;;2.30;;
789;SDS011;378;48.844;9.156;2023-04-03T06:06:20;3.50;;;2.20;;
789;SDS011;378;48.844;9.156;2023-04-03T06:08:49;10.52;;;1.88;;
789;SDS011;378;48.844;9.156;2023-04-03T06:11:16;3.13;;;1.92;;
789;SDS011;378;48.844;9.156;2023-04-03T06:13:43;3.63;;;2.03;;
789;SDS011;378;48.844;9.156;2023-04-03T06:16:11;3.42;;;2.30;;
789;SDS011;378;48.844;9.156;2023-04-03T06:18:40;3.83;;;2.00;;
789;SDS011;378;48.844;9.156;2023-04-03T06:21:07;4.13;;;1.80;;
789;SDS011;378;48.844;9.156;2023-04-03T06:23:34;3.53;;;1.75;;
789;SDS011;378;48.844;9.156;2023-04-03T06:26:02;4.57;;;2.30;;
789;SDS011;378;48.844;9.156;2023-04-03T06:28:30;5.90;;;2.28;;
789;SDS011;378;48.844;9.156;2023-04-03T06:30:57;4.55;;;1.98;;
789;SDS011;378;48.844;9.156;2023-04-03T06:33:24;2.85;;;1.98;;
789;SDS011;378;48.844;9.156;2023-04-03T06:35:55;4.47;;;2.15;;
789;SDS011;378;48.844;9.156;2023-04-03T06:38:23;3.67;;;2.10;;
789;SDS011;378;48.844;9.156;2023-04-03T06:40:50;7.03;;;2.57;;
789;SDS011;378;48.844;9.156;2023-04-03T06:43:18;4.10;;;2.22;;
789;SDS011;378;48.844;9.156;2023-04-03T06:45:46;5.65;;;2.45;;
789;SDS011;378;48.844;9.156;2023-04-03T06:48:13;4.28;;;2.30;;
789;SDS011;378;48.844;9.156;2023-04-03T06:50:40;4.30;;;2.20;;
789;SDS011;378;48.844;9.156;2023-04-03T06:53:07;5.95;;;2.50;;
789;SDS011;378;48.844;9.156;2023-04-03T06:55:34;11.18;;;2.10;;
789;SDS011;378;48.844;9.156;2023-04-03T06:58:02;3.00;;;2.20;;
789;SDS011;378;48.844;9.156;2023-04-03T07:00:31;9.63;;;2.50;;
789;SDS011;378;48.844;9.156;2023-04-03T07:02:57;8.68;;;2.30;;
789;SDS011;378;48.844;9.156;2023-04-03T07:05:24;7.30;;;2.42;;
789;SDS011;378;48.844;9.156;2023-04-03T07:07:51;3.90;;;2.25;;
789;SDS011;378;48.844;9.156;2023-04-03T07:10:18;4.90;;;2.17;;
789;SDS011;378;48.844;9.156;2023-04-03T07:12:45;7.60;;;2.50;;
789;SDS011;378;48.844;9.156;2023-04-03T07:15:13;3.65;;;2.20;;
789;SDS011;378;48.844;9.156;2023-04-03T07:17:41;5.32;;;2.35;;
789;SDS011;378;48.844;9.156;2023-04-03T07:20:09;7.05;;;2.10;;
789;SDS011;378;48.844;9.156;2023-04-03T07:22:36;4.97;;;2.28;;
789;SDS011;378;48.844;9.156;2023-04-03T07:25:03;4.35;;;2.42;;
789;SDS011;378;48.844;9.156;2023-04-03T07:27:32;5.78;;;2.13;;
789;SDS011;378;48.844;9.156;2023-04-03T07:29:59;3.70;;;2.13;;
789;SDS011;378;48.844;9.156;2023-04-03T07:32:26;3.05;;;2.00;;
789;SDS011;378;48.844;9.156;2023-04-03T07:34:54;7.03;;;2.25;;
789;SDS011;378;48.844;9.156;2023-04-03T07:37:21;4.70;;;2.20;;
789;SDS011;378;48.844;9.156;2023-04-03T07:39:48;7.22;;;2.63;;
789;SDS011;378;48.844;9.156;2023-04-03T07:42:16;3.10;;;1.90;;
789;SDS011;378;48.844;9.156;2023-04-03T07:44:42;4.55;;;2.10;;
789;SDS011;378;48.844;9.156;2023-04-03T07:47:09;2.85;;;2.25;;
789;SDS011;378;48.844;9.156;2023-04-03T07:49:36;4.55;;;2.10;;
789;SDS011;378;48.844;9.156;2023-04-03T07:52:06;5.78;;;2.00;;
789;SDS011;378;48.844;9.156;2023-04-03T07:54:34;2.92;;;1.77;;
789;SDS011;378;48.844;9.156;2023-04-03T07:57:01;2.45;;;1.90;;
789;SDS011;378;48.844;9.156;2023-04-03T07:59:29;5.18;;;2.10;;
789;SDS011;378;48.844;9.156;2023-04-03T08:01:55;9.25;;;2.35;;
789;SDS011;378;48.844;9.156;2023-04-03T08:04:22;3.80;;;2.20;;
789;SDS011;378;48.844;9.156;2023-04-03T08:06:50;5.63;;;2.40;;
789;SDS011;378;48.844;9.156;2023-04-03T08:09:18;5.90;;;2.00;;
789;SDS011;378;48.844;9.156;2023-04-03T08:11:45;4.47;;;2.08;;
789;SDS011;378;48.844;9.156;2023-04-03T08:14:12;4.07;;;2.17;;
789;SDS011;378;48.844;9.156;2023-04-03T08:16:41;4.63;;;2.20;;
789;SDS011;378;48.844;9.156;2023-04-03T08:19:09;5.50;;;2.40;;
789;SDS011;378;48.844;9.156;2023-04-03T08:21:36;4.95;;;2.30;;
789;SDS011;378;48.844;9.156;2023-04-03T08:24:06;3.28;;;1.80;;
789;SDS011;378;48.844;9.156;2023-04-03T08:26:35;2.60;;;1.70;;
789;SDS011;378;48.844;9.156;2023-04-03T08:29:02;4.30;;;2.25;;
789;SDS011;378;48.844;9.156;2023-04-03T08:31:29;4.20;;;2.00;;
789;SDS011;378;48.844;9.156;2023-04-03T08:33:56;5.47;;;2.40;;
789;SDS011;378;48.844;9.156;2023-04-03T08:36:24;7.70;;;2.17;;
789;SDS011;378;48.844;9.156;2023-04-03T08:38:53;4.43;;;1.70;;
789;SDS011;378;48.844;9.156;2023-04-03T08:41:24;7.85;;;2.25;;
789;SDS011;378;48.844;9.156;2023-04-03T08:43:59;5.60;;;2.20;;
789;SDS011;378;48.844;9.156;2023-04-03T08:46:34;5.47;;;2.15;;
789;SDS011;378;48.844;9.156;2023-04-03T08:49:10;4.65;;;2.13;;
789;SDS011;378;48.844;9.156;2023-04-03T08:51:43;6.78;;;2.20;;
789;SDS011;378;48.844;9.156;2023-04-03T08:54:17;9.27;;;2.45;;
789;SDS011;378;48.844;9.156;2023-04-03T08:56:53;6.53;;;2.00;;
789;SDS011;378;48.844;9.156;2023-04-03T08:59:25;7.30;;;2.40;;
789;SDS011;378;48.844;9.156;2023-04-03T09:01:55;3.13;;;1.88;;
789;SDS011;378;48.844;9.156;2023-04-03T09:04:23;3.40;;;1.92;;
789;SDS011;378;48.844;9.156;2023-04-03T09:06:54;4.78;;;1.85;;
789;SDS011;378;48.844;9.156;2023-04-03T09:09:29;3.88;;;1.92;;
789;SDS011;378;48.844;9.156;2023-04-03T09:12:00;6.93;;;2.10;;
789;SDS011;378;48.844;9.156;2023-04-03T09:14:39;4.43;;;2.10;;
789;SDS011;378;48.844;9.156;2023-04-03T09:17:13;5.22;;;2.00;;
789;SDS011;378;48.844;9.156;2023-04-03T09:19:47;3.55;;;2.00;;
789;SDS011;378;48.844;9.156;2023-04-03T09:22:22;6.13;;;2.05;;
789;SDS011;378;48.844;9.156;2023-04-03T09:24:52;4.10;;;1.95;;
789;SDS011;378;48.844;9.156;2023-04-03T09:27:26;6.28;;;2.60;;
789;SDS011;378;48.844;9.156;2023-04-03T09:29:54;8.38;;;2.05;;
789;SDS011;378;48.844;9.156;2023-04-03T09:32:25;2.42;;;1.70;;
789;SDS011;378;48.844;9.156;2023-04-03T09:34:54;5.47;;;2.05;;
789;SDS011;378;48.844;9.156;2023-04-03T09:37:39;4.50;;;2.33;;
789;SDS011;378;48.844;9.156;2023-04-03T09:42:56;6.47;;;2.08;;
789;SDS011;378;48.844;9.156;2023-04-03T09:45:27;6.70;;;1.80;;
789;SDS011;378;48.844;9.156;2023-04-03T09:48:11;3.38;;;1.90;;
789;SDS011;378;48.844;9.156;2023-04-03T09:50:52;3.30;;;1.73;;
789;SDS011;378;48.844;9.156;2023-04-03T09:53:36;6.15;;;2.17;;
789;SDS011;378;48.844;9.156;2023-04-03T09:56:09;4.10;;;1.88;;
789;SDS011;378;48.844;9.156;2023-04-03T09:58:47;5.22;;;2.30;;
789;SDS011;378;48.844;9.156;2023-04-03T10:01:25;4.38;;;1.60;;
789;SDS011;378;48.844;9.156;2023-04-03T10:04:04;6.07;;;2.70;;
789;SDS011;378;48.844;9.156;2023-04-03T10:06:34;6.88;;;2.15;;
789;SDS011;378;48.844;9.156;2023-04-03T10:09:04;4.30;;;1.73;;
789;SDS011;378;48.844;9.156;2023-04-03T10:11:33;5.63;;;1.38;;
789;SDS011;378;48.844;9.156;2023-04-03T10:14:00;5.55;;;2.03;;
789;SDS011;378;48.844;9.156;2023-04-03T10:16:34;5.13;;;1.95;;
789;SDS011;378;48.844;9.156;2023-04-03T10:19:17;5.10;;;1.75;;
789;SDS011;378;48.844;9.156;2023-04-03T10:22:02;3.25;;;1.67;;
789;SDS011;378;48.844;9.156;2023-04-03T10:24:36;6.88;;;1.80;;
789;SDS011;378;48.844;9.156;2023-04-03T10:27:10;5.70;;;1.60;;
789;SDS011;378;48.844;9.156;2023-04-03T10:29:45;6.40;;;1.70;;
789;SDS011;378;48.844;9.156;2023-04-03T10:32:25;6.13;;;2.70;;
789;SDS011;378;48.844;9.156;2023-04-03T10:35:18;7.20;;;1.83;;
789;SDS011;378;48.844;9.156;2023-04-03T10:37:55;3.08;;;1.80;;
789;SDS011;378;48.844;9.156;2023-04-03T10:40:33;3.53;;;1.45;;
789;SDS011;378;48.844;9.156;2023-04-03T10:43:06;2.53;;;1.60;;
789;SDS011;378;48.844;9.156;2023-04-03T10:45:46;4.97;;;1.73;;
789;SDS011;378;48.844;9.156;2023-04-03T10:48:22;2.00;;;1.40;;
789;SDS011;378;48.844;9.156;2023-04-03T10:51:09;5.03;;;1.75;;
789;SDS011;378;48.844;9.156;2023-04-03T10:53:44;4.00;;;1.40;;
789;SDS011;378;48.844;9.156;2023-04-03T10:56:21;5.88;;;1.58;;
789;SDS011;378;48.844;9.156;2023-04-03T10:58:56;6.00;;;1.98;;
789;SDS011;378;48.844;9.156;2023-04-03T11:01:27;3.22;;;1.65;;
789;SDS011;378;48.844;9.156;2023-04-03T11:04:00;5.47;;;1.70;;
789;SDS011;378;48.844;9.156;2023-04-03T11:06:31;4.45;;;2.25;;
789;SDS011;378;48.844;9.156;2023-04-03T11:09:05;4.45;;;2.53;;
789;SDS011;378;48.844;9.156;2023-04-03T11:11:41;3.72;;;1.70;;
789;SDS011;378;48.844;9.156;2023-04-03T11:14:09;3.45;;;1.70;;
789;SDS011;378;48.844;9.156;2023-04-03T11:16:42;2.70;;;1.67;;
789;SDS011;378;48.844;9.156;2023-04-03T11:19:14;1.95;;;1.33;;
789;SDS011;378;48.844;9.156;2023-04-03T11:21:47;3.17;;;1.80;;
789;SDS011;378;48.844;9.156;2023-04-03T11:24:22;6.95;;;1.55;;
789;SDS011;378;48.844;9.156;2023-04-03T11:26:51;4.38;;;1.55;;
789;SDS011;378;48.844;9.156;2023-04-03T11:29:20;3.55;;;1.40;;
789;SDS011;378;48.844;9.156;2023-04-03T11:32:04;3.22;;;1.60;;
789;SDS011;378;48.844;9.156;2023-04-03T11:34:40;2.05;;;1.40;;
789;SDS011;378;48.844;9.156;2023-04-03T11:37:13;4.93;;;1.90;;
789;SDS011;378;48.844;9.156;2023-04-03T11:39:48;6.65;;;1.80;;
789;SDS011;378;48.844;9.156;2023-04-03T11:42:24;2.95;;;1.52;;
789;SDS011;378;48.844;9.156;2023-04-03T11:47:53;5.28;;;1.67;;
789;SDS011;378;48.844;9.156;2023-04-03T11:50:31;2.28;;;1.30;;
789;SDS011;378;48.844;9.156;2023-04-03T11:53:25;6.65;;;1.50;;
789;SDS011;378;48.844;9.156;2023-04-03T11:55:58;2.05;;;1.40;;
789;SDS011;378;48.844;9.156;2023-04-03T11:58:42;1.55;;;1.30;;
789;SDS011;378;48.844;9.156;2023-04-03T12:01:45;4.32;;;1.67;;
789;SDS011;378;48.844;9.156;2023-04-03T12:04:13;7.15;;;1.70;;
789;SDS011;378;48.844;9.156;2023-04-03T12:06:49;6.07;;;1.90;;
789;SDS011;378;48.844;9.156;2023-04-03T12:09:35;3.97;;;1.98;;
789;SDS011;378;48.844;9.156;2023-04-03T12:18:36;2.92;;;1.13;;
789;SDS011;378;48.844;9.156;2023-04-03T12:21:10;2.67;;;1.45;;
789;SDS011;378;48.844;9.156;2023-04-03T12:23:56;6.47;;;1.38;;
789;SDS011;378;48.844;9.156;2023-04-03T12:26:30;4.78;;;1.40;;
789;SDS011;378;48.844;9.156;2023-04-03T12:29:01;5.43;;;1.50;;
789;SDS011;378;48.844;9.156;2023-04-03T12:31:38;4.07;;;1.50;;
789;SDS011;378;48.844;9.156;2023-04-03T12:34:14;5.82;;;1.30;;
789;SDS011;378;48.844;9.156;2023-04-03T12:36:55;1.83;;;1.15;;
789;SDS011;378;48.844;9.156;2023-04-03T12:39:43;5.57;;;1.63;;
789;SDS011;378;48.844;9.156;2023-04-03T12:42:24;5.80;;;2.20;;
789;SDS011;378;48.844;9.156;2023-04-03T12:45:09;2.92;;;1.63;;
789;SDS011;378;48.844;9.156;2023-04-03T12:47:45;3.15;;;1.52;;
789;SDS011;378;48.844;9.156;2023-04-03T12:50:20;4.72;;;2.22;;
789;SDS011;378;48.844;9.156;2023-04-03T12:52:51;4.25;;;1.60;;
789;SDS011;378;48.844;9.156;2023-04-03T12:55:25;3.50;;;1.60;;
789;SDS011;378;48.844;9.156;2023-04-03T12:57:52;1.30;;;1.20;;
789;SDS011;378;48.844;9.156;2023-04-03T13:00:29;3.83;;;1.48;;
789;SDS011;378;48.844;9.156;2023-04-03T13:02:59;3.85;;;1.40;;
789;SDS011;378;48.844;9.156;2023-04-03T13:05:27;5.10;;;1.70;;
789;SDS011;378;48.844;9.156;2023-04-03T13:07:56;4.55;;;1.20;;
789;SDS011;378;48.844;9.156;2023-04-03T13:10:28;2.55;;;1.50;;
789;SDS011;378;48.844;9.156;2023-04-03T13:12:57;4.95;;;2.40;;
789;SDS011;378;48.844;9.156;2023-04-03T13:15:26;3.25;;;1.52;;
789;SDS011;378;48.844;9.156;2023-04-03T13:17:54;3.45;;;1.40;;
789;SDS011;378;48.844;9.156;2023-04-03T13:20:23;4.68;;;1.42;;
789;SDS011;378;48.844;9.156;2023-04-03T13:22:54;4.07;;;1.42;;
789;SDS011;378;48.844;9.156;2023-04-03T13:25:25;3.85;;;1.65;;
789;SDS011;378;48.844;9.156;2023-04-03T13:27:56;4.60;;;1.60;;
789;SDS011;378;48.844;9.156;2023-04-03T13:30:27;5.45;;;1.60;;
789;SDS011;378;48.844;9.156;2023-04-03T13:32:55;6.03;;;1.42;;
789;SDS011;378;48.844;9.156;2023-04-03T13:35:28;4.53;;;1.50;;
789;SDS011;378;48.844;9.156;2023-04-03T13:37:58;5.18;;;1.48;;
789;SDS011;378;48.844;9.156;2023-04-03T13:40:26;3.55;;;1.40;;
789;SDS011;378;48.844;9.156;2023-04-03T13:43:05;5.20;;;1.45;;
789;SDS011;378;48.844;9.156;2023-04-03T13:45:53;3.50;;;1.85;;
789;SDS011;378;48.844;9.156;2023-04-03T13:48:23;3.22;;;1.70;;
789;SDS011;378;48.844;9.156;2023-04-03T13:50:51;3.95;;;1.70;;
789;SDS011;378;48.844;9.156;2023-04-03T13:53:22;6.75;;;1.60;;
789;SDS011;378;48.844;9.156;2023-04-03T13:55:57;4.40;;;1.50;;
789;SDS011;378;48.844;9.156;2023-04-03T13:58:34;7.18;;;1.52;;
789;SDS011;378;48.844;9.156;2023-04-03T14:01:08;4.65;;;1.83;;
789;SDS011;378;48.844;9.156;2023-04-03T14:03:43;1.90;;;1.50;;
789;SDS011;378;48.844;9.156;2023-04-03T14:06:13;4.07;;;1.70;;
789;SDS011;378;48.844;9.156;2023-04-03T14:08:42;4.53;;;1.55;;
789;SDS011;378;48.844;9.156;2023-04-03T14:11:13;2.40;;;1.50;;
789;SDS011;378;48.844;9.156;2023-04-03T14:13:43;5.50;;;1.70;;
789;SDS011;378;48.844;9.156;2023-04-03T14:16:14;4.18;;;1.40;;
789;SDS011;378;48.844;9.156;2023-04-03T14:18:43;5.07;;;1.50;;
789;SDS011;378;48.844;9.156;2023-04-03T14:21:11;4.75;;;1.63;;
789;SDS011;378;48.844;9.156;2023-04-03T14:23:38;3.75;;;1.48;;
789;SDS011;378;48.844;9.156;2023-04-03T14:26:08;2.55;;;1.40;;
789;SDS011;378;48.844;9.156;2023-04-03T14:28:37;2.92;;;1.40;;
789;SDS011;378;48.844;9.156;2023-04-03T14:31:06;2.83;;;1.33;;
789;SDS011;378;48.844;9.156;2023-04-03T14:33:33;2.65;;;1.50;;
789;SDS011;378;48.844;9.156;2023-04-03T14:36:00;2.80;;;1.35;;
789;SDS011;378;48.844;9.156;2023-04-03T14:38:28;3.58;;;1.52;;
789;SDS011;378;48.844;9.156;2023-04-03T14:40:57;2.03;;;1.40;;
789;SDS011;378;48.844;9.156;2023-04-03T14:43:24;5.22;;;1.65;;
789;SDS011;378;48.844;9.156;2023-04-03T14:45:51;3.05;;;1.40;;
789;SDS011;378;48.844;9.156;2023-04-03T14:48:20;6.35;;;1.48;;
789;SDS011;378;48.844;9.156;2023-04-03T14:50:49;2.42;;;1.50;;
789;SDS011;378;48.844;9.156;2023-04-03T14:53:17;6.10;;;1.75;;
789;SDS011;378;48.844;9.156;2023-04-03T14:55:50;3.85;;;2.40;;
789;SDS011;378;48.844;9.156;2023-04-03T14:58:18;4.72;;;1.92;;
789;SDS011;378;48.844;9.156;2023-04-03T15:00:47;4.35;;;1.80;;
789;SDS011;378;48.844;9.156;2023-04-03T15:03:14;5.55;;;1.77;;
789;SDS011;378;48.844;9.156;2023-04-03T15:05:45;3.75;;;1.50;;
789;SDS011;378;48.844;9.156;2023-04-03T15:08:16;4.50;;;1.60;;
789;SDS011;378;48.844;9.156;2023-04-03T15:10:46;2.33;;;1.30;;
789;SDS011;378;48.844;9.156;2023-04-03T15:13:13;2.60;;;1.27;;
789;SDS011;378;48.844;9.156;2023-04-03T15:15:40;3.50;;;1.10;;
789;SDS011;378;48.844;9.156;2023-04-03T15:18:10;4.68;;;1.50;;
789;SDS011;378;48.844;9.156;2023-04-03T15:20:41;2.47;;;1.35;;
789;SDS011;378;48.844;9.156;2023-04-03T15:23:10;10.07;;;4.47;;
789;SDS011;378;48.844;9.156;2023-04-03T15:25:38;10.25;;;3.50;;
789;SDS011;378;48.844;9.156;2023-04-03T15:28:05;10.32;;;4.47;;
789;SDS011;378;48.844;9.156;2023-04-03T15:30:35;4.53;;;2.72;;
789;SDS011;378;48.844;9.156;2023-04-03T15:33:04;4.65;;;1.80;;
789;SDS011;378;48.844;9.156;2023-04-03T15:35:31;3.35;;;2.20;;
789;SDS011;378;48.844;9.156;2023-04-03T15:37:57;6.15;;;2.00;;
789;SDS011;378;48.844;9.156;2023-04-03T15:40:26;9.18;;;1.63;;
789;SDS011;378;48.844;9.156;2023-04-03T15:42:53;5.13;;;2.20;;
789;SDS011;378;48.844;9.156;2023-04-03T15:45:20;5.95;;;1.67;;
789;SDS011;378;48.844;9.156;2023-04-03T15:47:47;5.22;;;1.75;;
789;SDS011;378;48.844;9.156;2023-04-03T15:50:14;3.20;;;1.80;;
789;SDS011;378;48.844;9.156;2023-04-03T15:52:41;2.13;;;1.33;;
789;SDS011;378;48.844;9.156;2023-04-03T15:55:08;3.85;;;1.30;;
789;SDS011;378;48.844;9.156;2023-04-03T15:57:36;2.03;;;1.13;;
789;SDS011;378;48.844;9.156;2023-04-03T16:00:03;2.38;;;1.65;;
789;SDS011;378;48.844;9.156;2023-04-03T16:02:31;5.38;;;1.73;;
789;SDS011;378;48.844;9.156;2023-04-03T16:04:59;2.60;;;1.38;;
789;SDS011;378;48.844;9.156;2023-04-03T16:07:26;2.22;;;1.30;;
789;SDS011;378;48.844;9.156;2023-04-03T16:09:53;3.55;;;1.60;;
789;SDS011;378;48.844;9.156;2023-04-03T16:12:20;3.25;;;1.60;;
789;SDS011;378;48.844;9.156;2023-04-03T16:14:48;3.85;;;1.50;;